createdAt,value
2023-07-22T00:04:31.308Z,15.18
2023-07-22T00:14:54.290Z,15.04
2023-07-22T00:25:15.751Z,14.94
2023-07-22T00:35:37.710Z,14.95
2023-07-22T00:45:59.358Z,14.90
2023-07-22T00:56:21.095Z,14.83
2023-07-22T01:06:43.910Z,14.72
2023-07-22T01:17:06.328Z,14.66
2023-07-22T01:27:28.036Z,14.51
2023-07-22T01:37:49.519Z,14.50
2023-07-22T01:48:11.051Z,14.43
2023-07-22T01:58:32.685Z,14.38
2023-07-22T02:08:54.303Z,14.30
2023-07-22T02:19:16.564Z,14.14
2023-07-22T02:29:37.994Z,14.06
2023-07-22T02:39:59.499Z,13.96
2023-07-22T02:50:20.988Z,13.95
2023-07-22T03:00:43.366Z,13.84
2023-07-22T03:11:04.916Z,13.88
2023-07-22T03:21:26.389Z,13.76
2023-07-22T03:31:47.935Z,13.76
2023-07-22T03:42:09.897Z,13.66
2023-07-22T03:52:31.423Z,13.63
2023-07-22T04:02:53.798Z,13.63
2023-07-22T04:13:15.314Z,13.69
2023-07-22T04:23:36.785Z,13.76
2023-07-22T04:33:58.648Z,13.65
2023-07-22T04:44:20.424Z,13.70
2023-07-22T04:54:42.576Z,13.84
2023-07-22T05:05:04.307Z,13.95
2023-07-22T05:15:26.161Z,14.23
2023-07-22T05:25:54.519Z,14.44
2023-07-22T05:36:15.976Z,14.54
2023-07-22T05:46:38.277Z,14.76
2023-07-22T05:56:59.786Z,14.90
2023-07-22T06:07:21.263Z,15.04
2023-07-22T06:17:42.753Z,15.13
2023-07-22T06:28:04.302Z,15.26
2023-07-22T06:38:25.744Z,15.54
2023-07-22T06:48:48.347Z,15.84
2023-07-22T06:59:09.907Z,15.94
2023-07-22T07:09:31.384Z,16.19
2023-07-22T07:19:52.834Z,16.40
2023-07-22T07:30:14.420Z,16.60
2023-07-22T07:40:35.867Z,16.76
2023-07-22T07:50:57.280Z,17.19
2023-07-22T08:01:18.807Z,17.42
2023-07-22T08:11:40.355Z,17.42
2023-07-22T08:22:02.041Z,17.36
2023-07-22T08:32:23.562Z,17.44
2023-07-22T08:42:46.644Z,17.66
2023-07-22T08:53:08.824Z,17.73
2023-07-22T09:03:30.358Z,17.87
2023-07-22T09:13:52.709Z,17.97
2023-07-22T09:24:21.432Z,18.25
2023-07-22T09:34:56.577Z,18.51
2023-07-22T09:45:19.208Z,18.78
2023-07-22T09:55:40.645Z,18.96
2023-07-22T10:06:05.111Z,19.04
2023-07-22T10:16:26.872Z,19.20
2023-07-22T10:26:52.460Z,19.41
2023-07-22T10:37:14.299Z,19.38
2023-07-22T10:47:37.829Z,19.43
2023-07-22T10:58:05.148Z,19.34
2023-07-22T11:08:40.201Z,19.30
2023-07-22T11:19:01.702Z,19.19
2023-07-22T11:29:23.168Z,19.04
2023-07-22T11:39:45.520Z,18.67
2023-07-22T11:50:07.287Z,18.36
2023-07-22T12:00:28.693Z,18.01
2023-07-22T12:10:59.679Z,17.68
2023-07-22T12:21:21.137Z,17.44
2023-07-22T12:31:42.621Z,17.31
2023-07-22T12:42:04.137Z,17.32
2023-07-22T12:52:25.850Z,17.46
2023-07-22T13:02:47.326Z,17.59
2023-07-22T13:13:08.756Z,17.49
2023-07-22T13:23:30.215Z,17.35
2023-07-22T13:33:51.779Z,17.39
2023-07-22T13:44:13.200Z,17.24
2023-07-22T13:54:35.201Z,16.99
2023-07-22T14:04:56.638Z,17.06
2023-07-22T14:15:18.044Z,17.03
2023-07-22T14:25:39.487Z,17.10
2023-07-22T14:36:00.919Z,17.13
2023-07-22T14:46:22.485Z,17.08
2023-07-22T14:56:44.054Z,17.10
2023-07-22T15:07:06.182Z,16.93
2023-07-22T15:17:28.212Z,16.77
2023-07-22T15:27:49.822Z,16.62
2023-07-22T15:38:11.318Z,16.65
2023-07-22T15:48:32.807Z,16.70
2023-07-22T15:58:54.356Z,16.67
2023-07-22T16:09:16.609Z,16.70
2023-07-22T16:19:38.083Z,16.71
2023-07-22T16:29:59.563Z,16.73
2023-07-22T16:40:21.020Z,16.74
2023-07-22T16:50:42.480Z,16.66
2023-07-22T17:01:04.034Z,16.59
2023-07-22T17:11:26.674Z,16.55
2023-07-22T17:21:48.542Z,16.51
2023-07-22T17:32:10.003Z,16.51
2023-07-22T17:42:31.460Z,16.54
2023-07-22T17:52:52.907Z,16.52
2023-07-22T18:03:14.509Z,16.52
2023-07-22T18:13:36.170Z,16.43
2023-07-22T18:23:57.681Z,16.44
2023-07-22T18:34:22.651Z,16.46
2023-07-22T18:44:44.246Z,16.38
2023-07-22T18:55:05.946Z,16.40
2023-07-22T19:05:27.441Z,16.31
2023-07-22T19:15:51.937Z,16.35
2023-07-22T19:26:13.425Z,16.37
2023-07-22T19:36:34.913Z,16.38
2023-07-22T19:46:56.361Z,16.34
2023-07-22T19:57:17.899Z,16.34
2023-07-22T20:07:39.305Z,16.34
2023-07-22T20:18:00.911Z,16.29
2023-07-22T20:28:22.702Z,16.23
2023-07-22T20:38:44.209Z,16.21
2023-07-22T20:49:05.641Z,16.21
2023-07-22T20:59:27.058Z,16.22
2023-07-22T21:09:48.544Z,16.19
2023-07-22T21:20:10.252Z,16.18
2023-07-22T21:30:31.676Z,16.13
2023-07-22T21:40:54.013Z,16.10
2023-07-22T21:51:16.095Z,16.08
2023-07-22T22:01:37.640Z,16.07
2023-07-22T22:11:59.137Z,16.05
2023-07-22T22:22:20.739Z,16.04
2023-07-22T22:32:42.348Z,16.02
2023-07-22T22:43:04.046Z,16.05
2023-07-22T22:53:25.703Z,16.02
2023-07-22T23:03:47.189Z,16.00
2023-07-22T23:14:08.629Z,16.01
2023-07-22T23:24:30.177Z,15.98
2023-07-22T23:34:52.651Z,15.96
2023-07-22T23:45:14.118Z,16.03
2023-07-22T23:55:35.554Z,16.04
